createdAt,value
2022-11-05T00:00:29.633Z,70.29
2022-11-05T00:03:14.603Z,69.95
2022-11-05T00:05:59.953Z,70.96
2022-11-05T00:08:45.296Z,70.97
2022-11-05T00:11:16.869Z,70.41
2022-11-05T00:14:03.437Z,70.04
2022-11-05T00:16:44.900Z,70.07
2022-11-05T00:19:11.513Z,70.21
2022-11-05T00:21:57.915Z,70.25
2022-11-05T00:24:43.786Z,70.22
2022-11-05T00:27:10.748Z,69.94
2022-11-05T00:29:37.617Z,69.86
2022-11-05T00:32:04.436Z,69.85
2022-11-05T00:34:31.021Z,69.75
2022-11-05T00:36:57.592Z,69.83
2022-11-05T00:39:24.199Z,69.55
2022-11-05T00:42:10.708Z,69.86
2022-11-05T00:44:55.571Z,69.93
2022-11-05T00:47:40.445Z,70.24
2022-11-05T00:50:07.277Z,70.29
2022-11-05T00:52:52.020Z,70.09
2022-11-05T00:55:18.606Z,69.91
2022-11-05T00:57:45.210Z,69.85
2022-11-05T01:00:12.597Z,69.75
2022-11-05T01:02:39.348Z,69.74
2022-11-05T01:05:06.205Z,69.82
2022-11-05T01:07:32.782Z,70.25
2022-11-05T01:09:59.376Z,69.73
2022-11-05T01:12:25.965Z,69.88
2022-11-05T01:14:52.603Z,69.83
2022-11-05T01:17:19.212Z,69.62
2022-11-05T01:19:45.777Z,69.53
2022-11-05T01:22:12.997Z,69.53
2022-11-05T01:24:39.604Z,70.20
2022-11-05T01:27:06.264Z,70.56
2022-11-05T01:29:32.867Z,70.95
2022-11-05T01:31:59.590Z,70.99
2022-11-05T01:34:26.169Z,70.37
2022-11-05T01:36:52.793Z,70.55
2022-11-05T01:39:19.369Z,70.28
2022-11-05T01:41:45.989Z,70.40
2022-11-05T01:44:50.194Z,70.33
2022-11-05T01:47:36.416Z,70.07
2022-11-05T01:50:16.373Z,70.04
2022-11-05T01:52:43.278Z,69.60
2022-11-05T01:55:11.297Z,69.65
2022-11-05T01:57:38.119Z,69.53
2022-11-05T02:00:05.159Z,69.30
2022-11-05T02:02:31.815Z,70.32
2022-11-05T02:05:02.450Z,70.19
2022-11-05T02:07:29.786Z,70.21
2022-11-05T02:10:11.129Z,70.10
2022-11-05T02:12:39.476Z,70.76
2022-11-05T02:15:06.797Z,71.13
2022-11-05T02:18:32.712Z,71.15
2022-11-05T02:21:38.388Z,71.67
2022-11-05T02:24:29.144Z,71.21
2022-11-05T02:27:12.091Z,70.60
2022-11-05T02:29:59.304Z,70.71
2022-11-05T02:32:45.417Z,70.67
2022-11-05T02:35:33.273Z,70.43
2022-11-05T02:38:13.504Z,70.17
2022-11-05T02:40:59.665Z,70.17
2022-11-05T02:43:38.092Z,70.08
2022-11-05T02:46:30.813Z,69.77
2022-11-05T02:48:57.362Z,69.52
2022-11-05T02:51:33.156Z,69.96
2022-11-05T02:54:27.124Z,69.79
2022-11-05T02:56:56.890Z,69.27
2022-11-05T02:59:23.488Z,69.41
2022-11-05T03:01:52.133Z,69.36
2022-11-05T03:04:21.904Z,69.72
2022-11-05T03:06:57.426Z,69.54
2022-11-05T03:09:42.016Z,69.33
2022-11-05T03:12:37.134Z,69.07
2022-11-05T03:15:29.574Z,69.20
2022-11-05T03:18:03.064Z,69.05
2022-11-05T03:20:54.758Z,69.12
2022-11-05T03:23:43.001Z,70.57
2022-11-05T03:26:33.996Z,70.21
2022-11-05T03:29:09.565Z,70.82
2022-11-05T03:31:39.060Z,70.71
2022-11-05T03:34:08.032Z,71.12
2022-11-05T03:36:42.284Z,70.32
2022-11-05T03:39:13.819Z,70.21
2022-11-05T03:41:45.613Z,70.25
2022-11-05T03:44:15.101Z,70.27
2022-11-05T03:46:45.295Z,70.42
2022-11-05T03:49:19.156Z,70.04
2022-11-05T03:51:59.016Z,69.83
2022-11-05T03:54:25.880Z,70.46
2022-11-05T03:56:52.400Z,69.65
2022-11-05T03:59:20.278Z,69.52
2022-11-05T04:01:48.015Z,69.92
2022-11-05T04:04:14.681Z,70.34
2022-11-05T04:06:59.942Z,70.40
2022-11-05T04:09:44.738Z,69.91
2022-11-05T04:12:30.238Z,69.65
2022-11-05T04:14:57.065Z,69.85
2022-11-05T04:17:23.668Z,69.65
2022-11-05T04:20:08.765Z,69.55
2022-11-05T04:22:54.689Z,70.01
2022-11-05T04:25:22.854Z,70.58
2022-11-05T04:27:49.858Z,70.02
2022-11-05T04:30:18.523Z,70.51
2022-11-05T04:33:09.600Z,70.59
2022-11-05T04:35:38.099Z,71.27
2022-11-05T04:38:10.201Z,71.48
2022-11-05T04:40:37.508Z,70.95
2022-11-05T04:43:06.511Z,70.36
2022-11-05T04:45:36.105Z,70.34
2022-11-05T04:48:03.605Z,70.55
2022-11-05T04:50:30.403Z,70.56
2022-11-05T04:52:57.317Z,70.65
2022-11-05T04:55:24.367Z,70.60
2022-11-05T04:57:52.493Z,70.23
2022-11-05T05:00:21.041Z,70.00
2022-11-05T05:02:47.736Z,69.52
2022-11-05T05:05:14.692Z,69.71
2022-11-05T05:07:42.000Z,69.77
2022-11-05T05:10:10.135Z,70.39
2022-11-05T05:12:36.806Z,70.57
2022-11-05T05:15:04.257Z,70.30
2022-11-05T05:17:30.860Z,70.32
2022-11-05T05:20:16.213Z,69.95
2022-11-05T05:22:42.916Z,69.72
2022-11-05T05:25:09.509Z,69.79
2022-11-05T05:27:36.132Z,69.66
2022-11-05T05:30:03.555Z,70.30
2022-11-05T05:32:30.139Z,70.24
2022-11-05T05:34:56.721Z,69.94
2022-11-05T05:37:23.313Z,70.16
2022-11-05T05:39:50.047Z,69.64
2022-11-05T05:42:16.767Z,69.43
2022-11-05T05:44:43.423Z,70.33
2022-11-05T05:47:10.072Z,70.26
2022-11-05T05:49:36.682Z,70.21
2022-11-05T05:52:03.365Z,69.85
2022-11-05T05:54:32.904Z,69.89
2022-11-05T05:57:01.790Z,70.27
2022-11-05T05:59:28.427Z,70.13
2022-11-05T06:01:55.148Z,70.59
2022-11-05T06:04:21.816Z,70.34
2022-11-05T06:06:49.650Z,69.94
2022-11-05T06:09:16.396Z,70.10
2022-11-05T06:11:43.062Z,70.39
2022-11-05T06:14:11.570Z,70.91
2022-11-05T06:16:39.392Z,70.34
2022-11-05T06:19:06.699Z,70.26
2022-11-05T06:21:33.498Z,69.86
2022-11-05T06:24:01.808Z,70.66
2022-11-05T06:26:28.711Z,70.29
2022-11-05T06:28:55.348Z,69.99
2022-11-05T06:31:22.041Z,70.27
2022-11-05T06:33:48.921Z,70.71
2022-11-05T06:36:17.193Z,71.03
2022-11-05T06:38:44.040Z,70.92
2022-11-05T06:41:11.028Z,70.79
2022-11-05T06:43:38.350Z,71.40
2022-11-05T06:46:05.237Z,71.39
2022-11-05T06:48:31.814Z,71.08
2022-11-05T06:50:58.561Z,71.34
2022-11-05T06:53:25.595Z,71.13
2022-11-05T06:55:52.297Z,71.14
2022-11-05T06:58:19.362Z,71.41
2022-11-05T07:00:46.476Z,71.54
2022-11-05T07:03:14.070Z,71.42
2022-11-05T07:05:45.187Z,71.91
2022-11-05T07:08:12.129Z,71.54
2022-11-05T07:10:38.841Z,71.66
2022-11-05T07:13:08.308Z,71.27
2022-11-05T07:15:36.701Z,71.17
2022-11-05T07:18:04.272Z,71.10
2022-11-05T07:20:34.165Z,71.40
2022-11-05T07:23:06.731Z,71.47
2022-11-05T07:25:34.050Z,71.18
2022-11-05T07:28:01.466Z,71.61
2022-11-05T07:30:29.134Z,71.19
2022-11-05T07:32:55.881Z,71.03
2022-11-05T07:35:23.138Z,70.62
2022-11-05T07:37:51.773Z,70.62
2022-11-05T07:40:19.461Z,70.54
2022-11-05T07:42:54.413Z,70.48
2022-11-05T07:45:21.801Z,69.93
2022-11-05T07:47:50.604Z,69.86
2022-11-05T07:50:19.024Z,69.66
2022-11-05T07:52:45.979Z,69.72
2022-11-05T07:55:13.419Z,69.70
2022-11-05T07:57:44.840Z,69.63
2022-11-05T08:00:17.160Z,69.72
2022-11-05T08:02:44.116Z,69.60
2022-11-05T08:05:10.958Z,69.53
2022-11-05T08:07:37.566Z,70.55
2022-11-05T08:10:04.647Z,70.14
2022-11-05T08:12:32.397Z,70.62
2022-11-05T08:14:59.161Z,70.63
2022-11-05T08:17:25.841Z,71.29
2022-11-05T08:19:52.621Z,70.55
2022-11-05T08:22:19.233Z,70.22
2022-11-05T08:24:45.796Z,70.64
2022-11-05T08:27:12.470Z,70.38
2022-11-05T08:29:39.064Z,70.27
2022-11-05T08:32:05.702Z,70.95
2022-11-05T08:34:32.324Z,71.28
2022-11-05T08:37:01.271Z,71.18
2022-11-05T08:39:28.149Z,71.30
2022-11-05T08:41:54.922Z,71.48
2022-11-05T08:44:21.608Z,71.63
2022-11-05T08:46:48.268Z,71.71
2022-11-05T08:49:14.868Z,72.29
2022-11-05T08:51:41.553Z,71.99
2022-11-05T08:54:08.135Z,71.87
2022-11-05T08:56:34.989Z,71.93
2022-11-05T08:59:01.571Z,71.97
2022-11-05T09:01:28.167Z,71.73
2022-11-05T09:03:54.840Z,71.98
2022-11-05T09:06:21.460Z,71.82
2022-11-05T09:08:48.104Z,71.43
2022-11-05T09:11:14.857Z,71.02
2022-11-05T09:13:41.494Z,72.49
2022-11-05T09:16:18.776Z,72.28
2022-11-05T09:18:45.357Z,71.69
2022-11-05T09:21:11.925Z,72.33
2022-11-05T09:23:39.147Z,71.49
2022-11-05T09:26:05.899Z,71.30
2022-11-05T09:28:33.216Z,71.36
2022-11-05T09:31:00.657Z,71.01
2022-11-05T09:33:28.061Z,70.81
2022-11-05T09:35:54.690Z,70.88
2022-11-05T09:38:21.303Z,70.68
2022-11-05T09:41:20.095Z,71.49
2022-11-05T09:43:53.485Z,72.44
2022-11-05T09:46:25.632Z,71.64
2022-11-05T09:49:05.538Z,71.09
2022-11-05T09:51:33.197Z,71.21
2022-11-05T09:54:00.700Z,72.60
2022-11-05T09:56:33.944Z,71.25
2022-11-05T09:59:06.096Z,70.76
2022-11-05T10:01:36.387Z,70.69
2022-11-05T10:04:09.425Z,70.94
2022-11-05T10:06:43.188Z,71.14
2022-11-05T10:09:35.409Z,71.10
2022-11-05T10:12:05.604Z,70.47
2022-11-05T10:14:41.850Z,70.99
2022-11-05T10:17:24.468Z,70.82
2022-11-05T10:19:58.173Z,70.37
2022-11-05T10:22:25.372Z,70.98
2022-11-05T10:24:53.485Z,71.58
2022-11-05T10:27:27.227Z,71.55
2022-11-05T10:29:54.211Z,71.91
2022-11-05T10:32:43.081Z,71.56
2022-11-05T10:35:15.100Z,71.51
2022-11-05T10:37:41.758Z,71.54
2022-11-05T10:40:47.773Z,71.05
2022-11-05T10:43:25.078Z,71.20
2022-11-05T10:46:28.562Z,70.98
2022-11-05T10:49:24.594Z,70.82
2022-11-05T10:51:58.079Z,71.68
2022-11-05T10:54:31.540Z,71.37
2022-11-05T10:56:58.190Z,72.16
2022-11-05T10:59:29.493Z,71.94
2022-11-05T11:02:25.938Z,71.92
2022-11-05T11:04:56.098Z,72.24
2022-11-05T11:07:24.821Z,72.54
2022-11-05T11:09:52.741Z,72.37
2022-11-05T11:12:28.932Z,72.76
2022-11-05T11:15:04.464Z,72.77
2022-11-05T11:17:32.436Z,72.72
2022-11-05T11:20:20.535Z,73.25
2022-11-05T11:23:16.841Z,73.19
2022-11-05T11:25:50.943Z,73.53
2022-11-05T11:28:29.655Z,73.91
2022-11-05T11:31:27.242Z,73.90
2022-11-05T11:34:20.373Z,73.97
2022-11-05T11:36:50.503Z,73.34
2022-11-05T11:39:21.920Z,73.32
2022-11-05T11:42:07.996Z,73.67
2022-11-05T11:44:41.198Z,72.91
2022-11-05T11:47:14.207Z,72.75
2022-11-05T11:49:52.769Z,73.37
2022-11-05T11:52:31.418Z,74.43
2022-11-05T11:55:13.270Z,73.76
2022-11-05T11:57:46.025Z,72.92
2022-11-05T12:00:13.416Z,71.75
2022-11-05T12:02:45.886Z,72.08
2022-11-05T12:05:15.142Z,72.31
2022-11-05T12:07:58.121Z,71.75
2022-11-05T12:11:08.321Z,71.50
2022-11-05T12:14:11.245Z,71.89
2022-11-05T12:16:50.597Z,72.11
2022-11-05T12:19:24.821Z,71.51
2022-11-05T12:22:26.696Z,71.59
2022-11-05T12:25:42.488Z,71.30
2022-11-05T12:28:36.060Z,71.12
2022-11-05T12:31:05.652Z,71.47
2022-11-05T12:33:42.302Z,71.54
2022-11-05T12:36:21.323Z,71.30
2022-11-05T12:39:15.873Z,71.39
2022-11-05T12:41:54.529Z,71.66
2022-11-05T12:44:33.301Z,72.26
2022-11-05T12:47:06.496Z,72.05
2022-11-05T12:49:52.065Z,71.55
2022-11-05T12:52:26.141Z,71.42
2022-11-05T12:55:11.605Z,71.13
2022-11-05T12:57:43.136Z,71.71
2022-11-05T13:00:18.374Z,71.32
2022-11-05T13:02:55.425Z,71.75
2022-11-05T13:05:36.550Z,71.62
2022-11-05T13:08:10.645Z,70.91
2022-11-05T13:10:52.596Z,71.34
2022-11-05T13:13:29.273Z,70.79
2022-11-05T13:16:06.546Z,69.42
2022-11-05T13:18:58.747Z,69.57
2022-11-05T13:21:29.027Z,69.75
2022-11-05T13:24:06.486Z,69.76
2022-11-05T13:27:09.241Z,69.72
2022-11-05T13:29:44.097Z,69.34
2022-11-05T13:32:34.459Z,69.50
2022-11-05T13:35:04.987Z,68.74
2022-11-05T13:37:58.568Z,68.60
2022-11-05T13:40:57.060Z,69.13
2022-11-05T13:43:58.730Z,69.66
2022-11-05T13:46:45.613Z,69.12
2022-11-05T13:49:30.895Z,68.69
2022-11-05T13:52:10.782Z,68.99
2022-11-05T13:55:01.731Z,69.25
2022-11-05T13:57:31.158Z,68.65
2022-11-05T14:00:19.441Z,68.47
2022-11-05T14:02:59.021Z,68.80
2022-11-05T14:05:41.440Z,68.47
2022-11-05T14:08:11.285Z,68.00
2022-11-05T14:10:46.608Z,68.29
2022-11-05T14:13:25.606Z,67.97
2022-11-05T14:16:07.741Z,67.63
2022-11-05T14:18:56.816Z,67.39
2022-11-05T14:21:26.121Z,67.42
2022-11-05T14:24:21.487Z,67.20
2022-11-05T14:27:03.366Z,66.83
2022-11-05T14:29:41.146Z,67.51
2022-11-05T14:32:19.791Z,67.95
2022-11-05T14:34:48.355Z,67.81
2022-11-05T14:37:23.733Z,68.22
2022-11-05T14:39:51.224Z,68.22
2022-11-05T14:42:26.752Z,68.62
2022-11-05T14:45:14.671Z,68.52
2022-11-05T14:47:50.113Z,67.77
2022-11-05T14:50:41.585Z,67.85
2022-11-05T14:53:26.781Z,67.75
2022-11-05T14:56:09.682Z,67.55
2022-11-05T14:58:38.606Z,67.04
2022-11-05T15:01:09.501Z,67.40
2022-11-05T15:03:45.392Z,67.02
2022-11-05T15:06:29.923Z,67.48
2022-11-05T15:09:12.649Z,66.85
2022-11-05T15:11:44.391Z,68.60
2022-11-05T15:14:22.552Z,69.24
2022-11-05T15:16:53.143Z,69.34
2022-11-05T15:19:41.140Z,69.69
2022-11-05T15:22:20.606Z,69.27
2022-11-05T15:24:47.537Z,68.68
2022-11-05T15:27:36.961Z,68.26
2022-11-05T15:30:30.072Z,68.08
2022-11-05T15:33:09.311Z,67.70
2022-11-05T15:35:41.397Z,67.47
2022-11-05T15:38:24.950Z,67.29
2022-11-05T15:40:56.665Z,67.30
2022-11-05T15:43:23.225Z,67.62
2022-11-05T15:46:25.773Z,67.64
2022-11-05T15:48:54.803Z,67.16
2022-11-05T15:51:23.938Z,67.40
2022-11-05T15:56:45.342Z,66.67
2022-11-05T15:59:20.628Z,67.20
2022-11-05T16:02:06.187Z,66.78
2022-11-05T16:04:34.986Z,67.02
2022-11-05T16:07:09.412Z,67.18
2022-11-05T16:09:40.060Z,66.71
2022-11-05T16:12:12.598Z,66.92
2022-11-05T16:14:39.705Z,67.22
2022-11-05T16:17:22.644Z,67.00
2022-11-05T16:19:50.124Z,66.50
2022-11-05T16:22:17.356Z,66.99
2022-11-05T16:24:45.173Z,66.77
2022-11-05T16:27:19.164Z,66.59
2022-11-05T16:29:54.329Z,66.43
2022-11-05T16:32:30.719Z,66.21
2022-11-05T16:35:03.463Z,66.67
2022-11-05T16:37:37.526Z,66.93
2022-11-05T16:40:22.983Z,67.27
2022-11-05T16:42:51.613Z,66.40
2022-11-05T16:45:21.340Z,66.84
2022-11-05T16:47:48.662Z,66.22
2022-11-05T16:50:25.335Z,66.50
2022-11-05T16:52:52.330Z,66.32
2022-11-05T16:55:19.480Z,66.03
2022-11-05T16:57:50.718Z,66.11
2022-11-05T17:00:19.869Z,66.28
2022-11-05T17:02:47.160Z,66.06
2022-11-05T17:05:26.272Z,66.05
2022-11-05T17:07:53.391Z,66.25
2022-11-05T17:10:21.832Z,66.50
2022-11-05T17:12:49.317Z,67.72
2022-11-05T17:15:21.680Z,67.12
2022-11-05T17:17:48.816Z,66.63
2022-11-05T17:20:43.932Z,67.00
2022-11-05T17:23:13.104Z,66.47
2022-11-05T17:25:41.545Z,66.28
2022-11-05T17:28:09.355Z,66.22
2022-11-05T17:30:39.413Z,66.39
2022-11-05T17:33:07.985Z,66.27
2022-11-05T17:35:34.602Z,66.24
2022-11-05T17:38:01.191Z,66.36
2022-11-05T17:40:28.924Z,66.20
2022-11-05T17:42:55.548Z,66.44
2022-11-05T17:45:22.217Z,66.44
2022-11-05T17:47:48.872Z,66.51
2022-11-05T17:50:16.265Z,66.73
2022-11-05T17:52:43.572Z,66.54
2022-11-05T17:55:16.809Z,67.56
2022-11-05T17:57:48.556Z,68.33
2022-11-05T18:00:20.885Z,68.29
2022-11-05T18:02:49.616Z,67.86
2022-11-05T18:05:20.280Z,67.80
2022-11-05T18:07:48.375Z,67.60
2022-11-05T18:10:15.705Z,68.05
2022-11-05T18:12:43.040Z,68.23
2022-11-05T18:15:10.154Z,67.86
2022-11-05T18:17:37.135Z,68.02
2022-11-05T18:20:11.663Z,67.66
2022-11-05T18:22:41.309Z,67.70
2022-11-05T18:25:10.028Z,67.65
2022-11-05T18:27:36.685Z,67.81
2022-11-05T18:30:04.756Z,67.68
2022-11-05T18:32:31.332Z,68.30
2022-11-05T18:34:58.080Z,67.79
2022-11-05T18:37:25.329Z,67.41
2022-11-05T18:39:52.686Z,67.41
2022-11-05T18:42:20.953Z,67.13
2022-11-05T18:44:48.337Z,67.08
2022-11-05T18:47:15.525Z,67.18
2022-11-05T18:49:42.154Z,67.78
2022-11-05T18:52:09.182Z,67.85
2022-11-05T18:54:35.782Z,68.43
2022-11-05T18:57:02.569Z,68.04
2022-11-05T18:59:39.090Z,68.14
2022-11-05T19:02:08.341Z,67.88
2022-11-05T19:04:36.802Z,68.14
2022-11-05T19:07:05.333Z,67.54
2022-11-05T19:09:33.617Z,67.44
2022-11-05T19:12:00.408Z,67.05
2022-11-05T19:14:26.990Z,67.18
2022-11-05T19:16:53.633Z,67.23
2022-11-05T19:19:20.252Z,67.28
2022-11-05T19:21:46.833Z,67.02
2022-11-05T19:24:17.081Z,67.26
2022-11-05T19:26:44.374Z,67.41
2022-11-05T19:29:11.556Z,67.70
2022-11-05T19:31:38.601Z,67.66
2022-11-05T19:34:05.695Z,67.65
2022-11-05T19:36:33.308Z,67.20
2022-11-05T19:39:03.519Z,67.64
2022-11-05T19:41:30.365Z,67.17
2022-11-05T19:44:01.761Z,67.07
2022-11-05T19:46:29.881Z,66.81
2022-11-05T19:48:57.026Z,66.73
2022-11-05T19:51:25.943Z,66.68
2022-11-05T19:53:53.237Z,66.91
2022-11-05T19:56:25.704Z,66.84
2022-11-05T19:58:53.396Z,66.73
2022-11-05T20:01:21.804Z,66.89
2022-11-05T20:03:48.780Z,67.09
2022-11-05T20:06:18.494Z,67.19
2022-11-05T20:09:07.026Z,67.03
2022-11-05T20:11:31.971Z,67.67
2022-11-05T20:13:58.837Z,67.06
2022-11-05T20:16:28.411Z,67.08
2022-11-05T20:18:55.632Z,66.89
2022-11-05T20:21:22.232Z,67.04
2022-11-05T20:23:49.013Z,66.99
2022-11-05T20:26:15.934Z,66.60
2022-11-05T20:28:43.719Z,67.15
2022-11-05T20:31:12.824Z,66.76
2022-11-05T20:33:40.830Z,66.70
2022-11-05T20:36:18.949Z,66.75
2022-11-05T20:38:55.167Z,66.61
2022-11-05T20:41:22.637Z,66.69
2022-11-05T20:43:49.203Z,66.86
2022-11-05T20:46:17.932Z,67.24
2022-11-05T20:48:45.376Z,67.50
2022-11-05T20:51:18.909Z,67.14
2022-11-05T20:53:48.914Z,66.92
2022-11-05T20:56:18.145Z,66.78
2022-11-05T20:58:45.074Z,66.69
2022-11-05T21:01:13.395Z,66.73
2022-11-05T21:03:40.082Z,66.81
2022-11-05T21:06:06.873Z,66.60
2022-11-05T21:08:34.161Z,66.65
2022-11-05T21:11:01.209Z,66.76
2022-11-05T21:13:27.874Z,67.26
2022-11-05T21:15:57.169Z,66.88
2022-11-05T21:18:27.248Z,67.10
2022-11-05T21:20:54.446Z,67.11
2022-11-05T21:23:21.483Z,67.52
2022-11-05T21:25:48.128Z,67.46
2022-11-05T21:28:16.057Z,67.50
2022-11-05T21:30:49.082Z,67.51
2022-11-05T21:33:17.574Z,67.46
2022-11-05T21:35:47.506Z,67.56
2022-11-05T21:38:16.662Z,67.10
2022-11-05T21:40:43.932Z,67.07
2022-11-05T21:43:11.289Z,67.11
2022-11-05T21:45:39.099Z,66.98
2022-11-05T21:48:06.573Z,67.11
2022-11-05T21:50:52.049Z,66.83
2022-11-05T21:53:37.538Z,66.97
2022-11-05T21:56:42.456Z,66.98
2022-11-05T21:59:36.873Z,66.96
2022-11-05T22:02:04.749Z,66.77
2022-11-05T22:04:39.850Z,67.01
2022-11-05T22:07:08.324Z,66.81
2022-11-05T22:09:35.237Z,66.56
2022-11-05T22:12:02.285Z,67.29
2022-11-05T22:14:29.424Z,66.88
2022-11-05T22:16:56.134Z,66.64
2022-11-05T22:19:23.159Z,66.75
2022-11-05T22:21:49.915Z,66.72
2022-11-05T22:24:16.895Z,67.22
2022-11-05T22:26:44.450Z,66.83
2022-11-05T22:29:11.504Z,66.71
2022-11-05T22:31:38.211Z,67.15
2022-11-05T22:34:06.405Z,67.22
2022-11-05T22:36:34.438Z,67.15
2022-11-05T22:39:01.630Z,66.75
2022-11-05T22:41:28.373Z,67.22
2022-11-05T22:43:55.763Z,67.09
2022-11-05T22:46:24.556Z,67.11
2022-11-05T22:48:51.577Z,67.01
2022-11-05T22:51:32.342Z,66.88
2022-11-05T22:53:59.434Z,66.63
2022-11-05T22:56:28.805Z,66.83
2022-11-05T22:58:55.788Z,66.69
2022-11-05T23:01:23.950Z,66.66
2022-11-05T23:03:53.082Z,66.83
2022-11-05T23:06:47.771Z,66.85
2022-11-05T23:09:38.735Z,66.77
2022-11-05T23:12:08.558Z,66.78
2022-11-05T23:14:38.005Z,66.57
2022-11-05T23:17:23.311Z,66.68
2022-11-05T23:20:08.686Z,66.55
2022-11-05T23:22:53.999Z,66.41
2022-11-05T23:25:22.568Z,66.34
2022-11-05T23:27:51.481Z,66.50
2022-11-05T23:30:21.831Z,66.91
2022-11-05T23:32:49.169Z,67.02
2022-11-05T23:35:16.329Z,67.10
2022-11-05T23:38:01.483Z,67.04
2022-11-05T23:40:30.734Z,66.65
2022-11-05T23:43:16.261Z,67.42
2022-11-05T23:46:03.043Z,67.36
2022-11-05T23:48:37.537Z,67.64
2022-11-05T23:51:09.549Z,67.93
2022-11-05T23:53:39.446Z,68.04
2022-11-05T23:56:11.753Z,68.32
2022-11-05T23:58:39.468Z,68.28
